createdAt,value
2023-01-09T00:02:13.011Z,8.40
2023-01-09T00:05:37.695Z,8.40
2023-01-09T00:09:01.926Z,8.40
2023-01-09T00:12:25.955Z,8.40
2023-01-09T00:15:51.152Z,8.50
2023-01-09T00:19:15.170Z,8.50
2023-01-09T00:22:38.886Z,8.50
2023-01-09T00:26:04.266Z,8.50
2023-01-09T00:29:27.801Z,8.50
2023-01-09T00:32:52.642Z,8.40
2023-01-09T00:36:16.162Z,8.40
2023-01-09T00:39:39.815Z,8.30
2023-01-09T00:43:03.401Z,8.20
2023-01-09T00:46:32.021Z,8.20
2023-01-09T00:50:00.857Z,8.10
2023-01-09T00:53:28.653Z,8.10
2023-01-09T00:56:52.226Z,8.20
2023-01-09T01:00:16.603Z,8.20
2023-01-09T01:03:40.336Z,8.20
2023-01-09T01:07:22.677Z,8.10
2023-01-09T01:10:47.526Z,8.30
2023-01-09T01:14:11.099Z,8.20
2023-01-09T01:17:35.968Z,8.20
2023-01-09T01:20:59.568Z,8.30
2023-01-09T01:24:24.640Z,8.20
2023-01-09T01:27:48.190Z,8.20
2023-01-09T01:31:18.252Z,8.20
2023-01-09T01:34:41.949Z,8.10
2023-01-09T01:38:06.354Z,8.10
2023-01-09T01:41:31.323Z,8.00
2023-01-09T01:45:09.280Z,7.90
2023-01-09T01:48:33.652Z,7.90
2023-01-09T01:51:57.199Z,7.80
2023-01-09T01:55:21.407Z,7.70
2023-01-09T01:58:53.122Z,7.60
2023-01-09T02:02:18.166Z,7.60
2023-01-09T02:05:42.363Z,7.60
2023-01-09T02:09:07.408Z,7.50
2023-01-09T02:12:30.930Z,7.50
2023-01-09T02:16:07.540Z,7.40
2023-01-09T02:20:02.374Z,7.50
2023-01-09T02:24:19.708Z,7.40
2023-01-09T02:28:13.135Z,7.30
2023-01-09T02:31:46.779Z,7.30
2023-01-09T02:35:31.520Z,7.30
2023-01-09T02:39:04.737Z,7.30
2023-01-09T02:42:28.484Z,7.30
2023-01-09T02:45:52.076Z,7.20
2023-01-09T02:49:18.435Z,7.10
2023-01-09T02:53:04.218Z,7.10
2023-01-09T02:56:48.136Z,7.10
2023-01-09T03:00:23.448Z,7.10
2023-01-09T03:03:50.157Z,7.10
2023-01-09T03:07:22.545Z,7.00
2023-01-09T03:10:53.477Z,7.00
2023-01-09T03:14:20.544Z,7.00
2023-01-09T03:17:48.480Z,7.00
2023-01-09T03:21:13.831Z,6.90
2023-01-09T03:24:39.057Z,7.00
2023-01-09T03:28:04.815Z,7.00
2023-01-09T03:31:28.397Z,7.00
2023-01-09T03:34:52.101Z,6.90
2023-01-09T03:38:16.107Z,6.90
2023-01-09T03:41:41.054Z,6.80
2023-01-09T03:45:05.857Z,6.80
2023-01-09T03:48:29.599Z,6.90
2023-01-09T03:51:53.143Z,6.90
2023-01-09T03:55:16.792Z,6.90
2023-01-09T03:58:41.612Z,6.90
2023-01-09T04:02:05.239Z,6.90
2023-01-09T04:05:29.003Z,6.90
2023-01-09T04:08:52.539Z,7.00
2023-01-09T04:12:16.095Z,7.10
2023-01-09T04:15:41.418Z,7.10
2023-01-09T04:19:04.966Z,7.10
2023-01-09T04:22:28.659Z,7.10
2023-01-09T04:25:52.204Z,7.20
2023-01-09T04:29:15.731Z,7.30
2023-01-09T04:32:40.635Z,7.20
2023-01-09T04:36:04.436Z,7.20
2023-01-09T04:39:28.016Z,7.10
2023-01-09T04:42:51.557Z,7.20
2023-01-09T04:46:15.206Z,7.20
2023-01-09T04:49:40.211Z,7.10
2023-01-09T04:53:04.020Z,7.20
2023-01-09T04:56:27.847Z,7.20
2023-01-09T04:59:52.277Z,7.20
2023-01-09T05:03:16.468Z,7.20
2023-01-09T05:06:41.451Z,7.20
2023-01-09T05:10:06.164Z,7.20
2023-01-09T05:13:29.731Z,7.10
2023-01-09T05:16:53.352Z,7.10
2023-01-09T05:20:16.983Z,7.10
2023-01-09T05:23:41.952Z,7.10
2023-01-09T05:27:05.501Z,7.10
2023-01-09T05:30:29.189Z,7.00
2023-01-09T05:33:53.009Z,7.00
2023-01-09T05:37:16.523Z,7.00
2023-01-09T05:40:41.719Z,7.10
2023-01-09T05:44:05.766Z,7.00
2023-01-09T05:47:29.363Z,7.10
2023-01-09T05:50:53.007Z,7.10
2023-01-09T05:54:16.530Z,7.10
2023-01-09T05:57:41.611Z,7.10
2023-01-09T06:01:05.192Z,7.10
2023-01-09T06:04:29.968Z,7.10
2023-01-09T06:07:53.745Z,7.10
2023-01-09T06:11:17.278Z,7.10
2023-01-09T06:14:42.251Z,7.10
2023-01-09T06:18:06.237Z,7.10
2023-01-09T06:21:29.974Z,7.00
2023-01-09T06:24:53.621Z,7.10
2023-01-09T06:28:17.229Z,7.00
2023-01-09T06:31:42.349Z,7.00
2023-01-09T06:35:07.021Z,7.00
2023-01-09T06:38:30.945Z,7.00
2023-01-09T06:41:54.629Z,6.90
2023-01-09T06:45:18.476Z,6.90
2023-01-09T06:48:43.850Z,6.90
2023-01-09T06:52:07.793Z,6.90
2023-01-09T06:55:31.385Z,6.90
2023-01-09T06:58:55.655Z,6.90
2023-01-09T07:02:23.505Z,6.90
2023-01-09T07:05:48.508Z,6.90
2023-01-09T07:09:13.310Z,7.00
2023-01-09T07:12:37.054Z,6.80
2023-01-09T07:16:03.116Z,6.90
2023-01-09T07:19:26.854Z,6.90
2023-01-09T07:22:51.972Z,6.70
2023-01-09T07:26:15.548Z,6.70
2023-01-09T07:29:39.289Z,6.70
2023-01-09T07:33:04.103Z,6.70
2023-01-09T07:36:27.884Z,6.70
2023-01-09T07:39:53.210Z,6.70
2023-01-09T07:43:16.935Z,6.70
2023-01-09T07:46:41.108Z,6.90
2023-01-09T07:50:05.125Z,6.80
2023-01-09T07:53:29.051Z,6.80
2023-01-09T07:56:53.952Z,6.80
2023-01-09T08:00:21.530Z,6.80
2023-01-09T08:03:45.477Z,6.80
2023-01-09T08:07:09.311Z,6.90
2023-01-09T08:10:33.544Z,6.90
2023-01-09T08:14:01.429Z,6.80
2023-01-09T08:17:26.547Z,6.80
2023-01-09T08:20:50.874Z,6.90
2023-01-09T08:24:14.708Z,6.80
2023-01-09T08:27:38.381Z,6.80
2023-01-09T08:31:03.570Z,6.80
2023-01-09T08:34:27.552Z,6.70
2023-01-09T08:37:51.273Z,6.60
2023-01-09T08:41:32.127Z,6.50
2023-01-09T08:45:13.035Z,6.50
2023-01-09T08:48:38.040Z,6.50
2023-01-09T08:52:01.727Z,6.60
2023-01-09T08:55:25.472Z,6.50
2023-01-09T08:58:49.023Z,6.60
2023-01-09T09:02:12.605Z,6.60
2023-01-09T09:05:37.628Z,6.70
2023-01-09T09:09:03.188Z,6.70
2023-01-09T09:12:26.805Z,6.70
2023-01-09T09:15:50.384Z,6.70
2023-01-09T09:19:13.988Z,6.70
2023-01-09T09:22:39.130Z,6.80
2023-01-09T09:26:02.699Z,7.10
2023-01-09T09:29:26.311Z,7.70
2023-01-09T09:32:50.550Z,7.90
2023-01-09T09:36:14.108Z,7.70
2023-01-09T09:39:39.248Z,7.40
2023-01-09T09:43:43.350Z,7.30
2023-01-09T09:47:15.762Z,7.30
2023-01-09T09:51:13.308Z,7.30
2023-01-09T09:54:41.916Z,7.20
2023-01-09T09:58:12.571Z,7.30
2023-01-09T10:01:42.616Z,7.90
2023-01-09T10:05:12.836Z,8.00
2023-01-09T10:08:46.355Z,8.00
2023-01-09T10:12:27.117Z,7.80
2023-01-09T10:15:58.864Z,7.60
2023-01-09T10:19:40.040Z,7.80
2023-01-09T10:23:17.932Z,7.90
2023-01-09T10:26:48.297Z,7.80
2023-01-09T10:30:33.885Z,7.80
2023-01-09T10:34:10.203Z,7.90
2023-01-09T10:37:38.308Z,7.90
2023-01-09T10:41:06.226Z,8.00
2023-01-09T10:44:37.374Z,8.00
2023-01-09T10:48:07.309Z,8.10
2023-01-09T10:51:37.171Z,8.20
2023-01-09T10:55:05.963Z,8.20
2023-01-09T10:58:29.741Z,8.20
2023-01-09T11:01:54.627Z,8.20
2023-01-09T11:05:22.492Z,8.10
2023-01-09T11:08:47.796Z,8.10
2023-01-09T11:12:26.044Z,8.10
2023-01-09T11:16:01.446Z,8.10
2023-01-09T11:19:26.456Z,8.20
2023-01-09T11:22:53.333Z,8.20
2023-01-09T11:26:24.953Z,8.30
2023-01-09T11:30:08.393Z,8.30
2023-01-09T11:33:35.722Z,8.20
2023-01-09T11:37:04.853Z,8.10
2023-01-09T11:40:33.242Z,8.00
2023-01-09T11:43:59.147Z,7.90
2023-01-09T11:47:36.920Z,7.90
2023-01-09T11:51:01.934Z,7.90
2023-01-09T11:54:27.022Z,7.90
2023-01-09T11:57:53.291Z,7.90
2023-01-09T12:01:36.780Z,7.90
2023-01-09T12:05:07.795Z,8.00
2023-01-09T12:08:49.170Z,8.10
2023-01-09T12:12:21.317Z,8.10
2023-01-09T12:15:53.881Z,8.10
2023-01-09T12:19:42.000Z,8.10
2023-01-09T12:23:21.715Z,8.10
2023-01-09T12:26:56.960Z,8.20
2023-01-09T12:30:27.396Z,8.30
2023-01-09T12:34:03.394Z,8.20
2023-01-09T12:37:50.284Z,8.10
2023-01-09T12:41:43.586Z,8.00
2023-01-09T12:45:28.524Z,8.00
2023-01-09T12:49:18.750Z,8.00
2023-01-09T12:52:48.065Z,8.00
2023-01-09T12:56:16.981Z,8.00
2023-01-09T12:59:44.579Z,8.10
2023-01-09T13:03:16.339Z,8.10
2023-01-09T13:06:50.978Z,8.00
2023-01-09T13:10:21.323Z,8.00
2023-01-09T13:13:49.696Z,8.00
2023-01-09T13:17:19.525Z,7.90
2023-01-09T13:20:46.291Z,8.00
2023-01-09T13:24:19.185Z,8.00
2023-01-09T13:27:47.826Z,8.10
2023-01-09T13:31:51.142Z,8.00
2023-01-09T13:35:16.007Z,8.00
2023-01-09T13:38:39.983Z,8.00
2023-01-09T13:42:24.580Z,8.00
2023-01-09T13:45:53.722Z,7.90
2023-01-09T13:49:54.781Z,7.90
2023-01-09T13:53:49.915Z,8.00
2023-01-09T13:57:29.527Z,8.10
2023-01-09T14:01:02.971Z,8.10
2023-01-09T14:04:45.931Z,8.10
2023-01-09T14:08:14.410Z,8.10
2023-01-09T14:11:39.530Z,8.10
2023-01-09T14:15:03.327Z,8.10
2023-01-09T14:18:30.870Z,8.00
2023-01-09T14:21:56.984Z,8.00
2023-01-09T14:25:26.531Z,8.10
2023-01-09T14:28:51.945Z,8.00
2023-01-09T14:32:38.857Z,8.10
2023-01-09T14:36:10.491Z,8.20
2023-01-09T14:39:34.306Z,8.20
2023-01-09T14:43:05.462Z,8.30
2023-01-09T14:46:39.010Z,8.20
2023-01-09T14:50:07.701Z,8.20
2023-01-09T14:53:34.298Z,8.10
2023-01-09T14:56:57.886Z,8.10
2023-01-09T15:00:23.219Z,8.10
2023-01-09T15:03:52.161Z,8.00
2023-01-09T15:07:20.788Z,7.90
2023-01-09T15:10:46.512Z,7.90
2023-01-09T15:14:27.297Z,7.90
2023-01-09T15:17:56.248Z,7.90
2023-01-09T15:21:24.462Z,7.80
2023-01-09T15:24:48.019Z,7.80
2023-01-09T15:28:28.566Z,7.80
2023-01-09T15:31:55.498Z,7.80
2023-01-09T15:35:19.812Z,7.80
2023-01-09T15:38:46.026Z,7.70
2023-01-09T15:42:40.804Z,7.70
2023-01-09T15:46:04.619Z,7.70
2023-01-09T15:49:29.397Z,7.70
2023-01-09T15:52:53.929Z,7.60
2023-01-09T15:56:23.880Z,7.60
2023-01-09T15:59:47.535Z,7.60
2023-01-09T16:03:29.053Z,7.50
2023-01-09T16:06:54.423Z,7.40
2023-01-09T16:10:24.660Z,7.30
2023-01-09T16:13:49.654Z,7.40
2023-01-09T16:17:17.628Z,7.40
2023-01-09T16:20:41.348Z,7.40
2023-01-09T16:24:26.050Z,7.40
2023-01-09T16:31:43.693Z,7.30
2023-01-09T16:35:15.430Z,7.30
2023-01-09T16:38:38.963Z,7.30
2023-01-09T16:42:20.539Z,7.30
2023-01-09T16:45:44.564Z,7.40
2023-01-09T16:49:19.032Z,7.40
2023-01-09T16:52:42.540Z,7.30
2023-01-09T16:56:08.391Z,7.20
2023-01-09T16:59:31.909Z,7.10
2023-01-09T17:02:57.189Z,7.10
2023-01-09T17:06:27.142Z,7.00
2023-01-09T17:09:50.702Z,7.00
2023-01-09T17:13:14.312Z,7.00
2023-01-09T17:16:38.380Z,7.00
2023-01-09T17:20:02.171Z,7.00
2023-01-09T17:23:27.244Z,7.10
2023-01-09T17:27:10.021Z,7.00
2023-01-09T17:30:33.512Z,7.00
2023-01-09T17:33:57.023Z,7.00
2023-01-09T17:37:21.189Z,7.00
2023-01-09T17:40:46.410Z,7.00
2023-01-09T17:44:11.697Z,7.00
2023-01-09T17:47:35.814Z,7.10
2023-01-09T17:50:59.679Z,7.00
2023-01-09T17:54:23.223Z,7.00
2023-01-09T17:57:48.231Z,6.90
2023-01-09T18:01:12.365Z,7.00
2023-01-09T18:04:38.971Z,7.00
2023-01-09T18:08:02.538Z,7.00
2023-01-09T18:11:26.271Z,6.90
2023-01-09T18:14:52.744Z,6.90
2023-01-09T18:18:17.311Z,6.90
2023-01-09T18:21:40.857Z,6.90
2023-01-09T18:25:05.242Z,6.90
2023-01-09T18:28:28.765Z,7.00
2023-01-09T18:31:53.825Z,6.90
2023-01-09T18:35:17.599Z,6.90
2023-01-09T18:38:41.720Z,6.90
2023-01-09T18:42:05.380Z,6.90
2023-01-09T18:45:28.930Z,7.00
2023-01-09T18:48:55.068Z,6.90
2023-01-09T18:52:18.587Z,6.90
2023-01-09T18:55:42.180Z,6.90
2023-01-09T18:59:06.032Z,6.90
2023-01-09T19:02:30.231Z,6.90
2023-01-09T19:06:00.672Z,6.90
2023-01-09T19:09:24.177Z,6.80
2023-01-09T19:12:47.745Z,6.80
2023-01-09T19:16:11.813Z,6.70
2023-01-09T19:19:35.790Z,6.70
2023-01-09T19:23:00.685Z,6.80
2023-01-09T19:26:26.067Z,6.80
2023-01-09T19:29:49.609Z,6.70
2023-01-09T19:33:14.116Z,6.70
2023-01-09T19:36:37.751Z,6.60
2023-01-09T19:40:02.672Z,6.60
2023-01-09T19:43:29.054Z,6.50
2023-01-09T19:46:52.647Z,6.50
2023-01-09T19:50:17.552Z,6.50
2023-01-09T19:53:41.388Z,6.50
2023-01-09T19:57:06.531Z,6.50
2023-01-09T20:00:30.192Z,6.50
2023-01-09T20:03:56.392Z,6.50
2023-01-09T20:07:21.316Z,6.40
2023-01-09T20:10:44.797Z,6.40
2023-01-09T20:14:12.483Z,6.50
2023-01-09T20:17:36.004Z,6.50
2023-01-09T20:20:59.713Z,6.50
2023-01-09T20:24:23.318Z,6.50
2023-01-09T20:27:46.943Z,6.60
2023-01-09T20:31:13.257Z,6.60
2023-01-09T20:34:37.362Z,6.70
2023-01-09T20:38:01.001Z,6.70
2023-01-09T20:41:25.749Z,6.70
2023-01-09T20:44:49.253Z,6.70
2023-01-09T20:48:14.508Z,6.70
2023-01-09T20:51:41.721Z,6.70
2023-01-09T20:55:06.371Z,6.70
2023-01-09T20:58:29.940Z,6.60
2023-01-09T21:01:53.549Z,6.60
2023-01-09T21:05:18.627Z,6.70
2023-01-09T21:08:43.417Z,6.60
2023-01-09T21:12:24.591Z,6.50
2023-01-09T21:15:48.142Z,6.50
2023-01-09T21:19:11.623Z,6.50
2023-01-09T21:22:37.863Z,6.50
2023-01-09T21:26:01.774Z,6.50
2023-01-09T21:29:25.422Z,6.50
2023-01-09T21:32:48.995Z,6.50
2023-01-09T21:36:12.950Z,6.50
2023-01-09T21:39:37.951Z,6.60
2023-01-09T21:43:19.005Z,6.60
2023-01-09T21:46:55.918Z,6.60
2023-01-09T21:50:19.580Z,6.70
2023-01-09T21:53:43.099Z,6.70
2023-01-09T21:57:09.023Z,6.70
2023-01-09T22:00:33.419Z,6.70
2023-01-09T22:04:01.088Z,6.60
2023-01-09T22:07:24.849Z,6.40
2023-01-09T22:10:58.451Z,6.40
2023-01-09T22:14:23.483Z,6.40
2023-01-09T22:17:46.975Z,6.40
2023-01-09T22:21:10.560Z,6.50
2023-01-09T22:24:34.217Z,6.50
2023-01-09T22:27:58.922Z,6.50
2023-01-09T22:31:26.043Z,6.50
2023-01-09T22:34:49.565Z,6.60
2023-01-09T22:38:13.630Z,6.60
2023-01-09T22:41:37.525Z,6.60
2023-01-09T22:45:01.074Z,6.60
2023-01-09T22:48:28.622Z,6.70
2023-01-09T22:51:52.120Z,6.70
2023-01-09T22:55:15.773Z,6.70
2023-01-09T22:58:39.616Z,6.70
2023-01-09T23:02:03.217Z,6.70
2023-01-09T23:05:30.962Z,6.60
2023-01-09T23:08:55.707Z,6.60
2023-01-09T23:12:20.224Z,6.60
2023-01-09T23:15:46.387Z,6.60
2023-01-09T23:19:12.731Z,6.60
2023-01-09T23:22:37.603Z,6.60
2023-01-09T23:26:05.319Z,6.60
2023-01-09T23:29:29.816Z,6.50
2023-01-09T23:32:54.291Z,6.60
2023-01-09T23:36:18.301Z,6.50
2023-01-09T23:39:46.099Z,6.50
2023-01-09T23:43:11.207Z,6.50
2023-01-09T23:46:38.853Z,6.40
2023-01-09T23:50:03.870Z,6.40
2023-01-09T23:53:32.692Z,6.30
2023-01-09T23:56:57.734Z,6.30
